sensor_id;sensor_type;location;lat;lon;timestamp;P1;durP1;ratioP1;P2;durP2;ratioP2
16977;SDS011;8605;52.548;4.918;2023-02-15T00:02:26;21.60;;;13.77;;
16977;SDS011;8605;52.548;4.918;2023-02-15T00:07:29;17.97;;;10.87;;
16977;SDS011;8605;52.548;4.918;2023-02-15T00:12:32;17.67;;;12.93;;
16977;SDS011;8605;52.548;4.918;2023-02-15T00:17:36;15.50;;;10.93;;
16977;SDS011;8605;52.548;4.918;2023-02-15T00:22:39;21.50;;;10.13;;
16977;SDS011;8605;52.548;4.918;2023-02-15T00:27:42;17.17;;;11.20;;
16977;SDS011;8605;52.548;4.918;2023-02-15T00:32:48;18.17;;;11.67;;
16977;SDS011;8605;52.548;4.918;2023-02-15T00:38:07;15.73;;;11.50;;
16977;SDS011;8605;52.548;4.918;2023-02-15T00:43:10;18.80;;;11.67;;
16977;SDS011;8605;52.548;4.918;2023-02-15T00:48:17;20.90;;;11.77;;
16977;SDS011;8605;52.548;4.918;2023-02-15T00:53:21;13.57;;;9.83;;
16977;SDS011;8605;52.548;4.918;2023-02-15T00:58:24;13.83;;;10.13;;
16977;SDS011;8605;52.548;4.918;2023-02-15T01:03:44;14.90;;;11.10;;
16977;SDS011;8605;52.548;4.918;2023-02-15T01:08:48;21.53;;;11.83;;
16977;SDS011;8605;52.548;4.918;2023-02-15T01:13:51;24.70;;;13.30;;
16977;SDS011;8605;52.548;4.918;2023-02-15T01:18:57;18.53;;;10.80;;
16977;SDS011;8605;52.548;4.918;2023-02-15T01:24:00;18.10;;;11.23;;
16977;SDS011;8605;52.548;4.918;2023-02-15T01:29:19;20.83;;;12.37;;
16977;SDS011;8605;52.548;4.918;2023-02-15T01:34:23;18.23;;;11.20;;
16977;SDS011;8605;52.548;4.918;2023-02-15T01:39:26;18.07;;;10.90;;
16977;SDS011;8605;52.548;4.918;2023-02-15T01:44:46;21.43;;;11.43;;
16977;SDS011;8605;52.548;4.918;2023-02-15T01:49:55;21.77;;;13.40;;
16977;SDS011;8605;52.548;4.918;2023-02-15T01:55:03;22.50;;;12.67;;
16977;SDS011;8605;52.548;4.918;2023-02-15T02:00:08;23.30;;;13.37;;
16977;SDS011;8605;52.548;4.918;2023-02-15T02:05:16;22.77;;;13.53;;
16977;SDS011;8605;52.548;4.918;2023-02-15T02:10:20;20.83;;;12.17;;
16977;SDS011;8605;52.548;4.918;2023-02-15T02:15:26;21.77;;;12.70;;
16977;SDS011;8605;52.548;4.918;2023-02-15T02:20:42;20.30;;;11.37;;
16977;SDS011;8605;52.548;4.918;2023-02-15T02:26:16;20.07;;;11.30;;
16977;SDS011;8605;52.548;4.918;2023-02-15T02:31:44;21.13;;;12.13;;
16977;SDS011;8605;52.548;4.918;2023-02-15T02:36:58;22.13;;;11.80;;
16977;SDS011;8605;52.548;4.918;2023-02-15T02:42:05;23.43;;;13.03;;
16977;SDS011;8605;52.548;4.918;2023-02-15T02:47:13;20.43;;;11.63;;
16977;SDS011;8605;52.548;4.918;2023-02-15T02:52:37;21.47;;;12.47;;
16977;SDS011;8605;52.548;4.918;2023-02-15T02:57:42;20.00;;;11.73;;
16977;SDS011;8605;52.548;4.918;2023-02-15T03:03:10;21.17;;;14.03;;
16977;SDS011;8605;52.548;4.918;2023-02-15T03:08:18;23.93;;;12.77;;
16977;SDS011;8605;52.548;4.918;2023-02-15T03:13:23;21.60;;;12.70;;
16977;SDS011;8605;52.548;4.918;2023-02-15T03:18:28;20.43;;;12.00;;
16977;SDS011;8605;52.548;4.918;2023-02-15T03:23:34;20.63;;;12.53;;
16977;SDS011;8605;52.548;4.918;2023-02-15T03:28:52;22.43;;;12.97;;
16977;SDS011;8605;52.548;4.918;2023-02-15T03:33:57;22.43;;;13.47;;
16977;SDS011;8605;52.548;4.918;2023-02-15T03:39:04;20.17;;;11.63;;
16977;SDS011;8605;52.548;4.918;2023-02-15T03:44:13;17.80;;;10.07;;
16977;SDS011;8605;52.548;4.918;2023-02-15T03:49:21;22.53;;;12.00;;
16977;SDS011;8605;52.548;4.918;2023-02-15T03:54:31;20.03;;;12.03;;
16977;SDS011;8605;52.548;4.918;2023-02-15T03:59:45;15.93;;;10.83;;
16977;SDS011;8605;52.548;4.918;2023-02-15T04:05:12;19.40;;;11.13;;
16977;SDS011;8605;52.548;4.918;2023-02-15T04:10:16;18.60;;;12.37;;
16977;SDS011;8605;52.548;4.918;2023-02-15T04:15:36;21.67;;;12.87;;
16977;SDS011;8605;52.548;4.918;2023-02-15T04:20:57;21.13;;;12.37;;
16977;SDS011;8605;52.548;4.918;2023-02-15T04:26:19;23.60;;;11.70;;
16977;SDS011;8605;52.548;4.918;2023-02-15T04:31:22;24.03;;;14.10;;
16977;SDS011;8605;52.548;4.918;2023-02-15T04:36:25;24.57;;;12.70;;
16977;SDS011;8605;52.548;4.918;2023-02-15T04:41:29;18.43;;;11.77;;
16977;SDS011;8605;52.548;4.918;2023-02-15T04:46:33;22.77;;;11.90;;
16977;SDS011;8605;52.548;4.918;2023-02-15T04:51:36;24.60;;;13.33;;
16977;SDS011;8605;52.548;4.918;2023-02-15T04:56:40;22.00;;;14.07;;
16977;SDS011;8605;52.548;4.918;2023-02-15T05:01:44;22.83;;;13.17;;
16977;SDS011;8605;52.548;4.918;2023-02-15T05:06:47;29.10;;;14.57;;
16977;SDS011;8605;52.548;4.918;2023-02-15T05:11:51;27.83;;;13.90;;
16977;SDS011;8605;52.548;4.918;2023-02-15T05:16:54;32.83;;;14.77;;
16977;SDS011;8605;52.548;4.918;2023-02-15T05:21:57;29.90;;;14.57;;
16977;SDS011;8605;52.548;4.918;2023-02-15T05:27:02;29.57;;;14.77;;
16977;SDS011;8605;52.548;4.918;2023-02-15T05:32:23;27.03;;;14.20;;
16977;SDS011;8605;52.548;4.918;2023-02-15T05:37:26;31.83;;;15.97;;
16977;SDS011;8605;52.548;4.918;2023-02-15T05:42:32;35.73;;;16.50;;
16977;SDS011;8605;52.548;4.918;2023-02-15T05:47:35;28.07;;;17.73;;
16977;SDS011;8605;52.548;4.918;2023-02-15T05:52:38;37.57;;;16.30;;
16977;SDS011;8605;52.548;4.918;2023-02-15T05:57:42;34.00;;;16.60;;
16977;SDS011;8605;52.548;4.918;2023-02-15T06:02:45;25.27;;;14.30;;
16977;SDS011;8605;52.548;4.918;2023-02-15T06:07:48;28.07;;;15.33;;
16977;SDS011;8605;52.548;4.918;2023-02-15T06:12:52;33.80;;;17.13;;
16977;SDS011;8605;52.548;4.918;2023-02-15T06:17:55;30.17;;;14.83;;
16977;SDS011;8605;52.548;4.918;2023-02-15T06:22:58;35.10;;;16.93;;
16977;SDS011;8605;52.548;4.918;2023-02-15T06:28:05;31.50;;;17.70;;
16977;SDS011;8605;52.548;4.918;2023-02-15T06:33:08;27.53;;;14.80;;
16977;SDS011;8605;52.548;4.918;2023-02-15T06:38:10;34.30;;;17.00;;
16977;SDS011;8605;52.548;4.918;2023-02-15T06:43:15;30.87;;;15.50;;
16977;SDS011;8605;52.548;4.918;2023-02-15T06:48:17;28.83;;;16.93;;
16977;SDS011;8605;52.548;4.918;2023-02-15T06:53:39;29.17;;;17.67;;
16977;SDS011;8605;52.548;4.918;2023-02-15T06:58:45;32.13;;;15.30;;
16977;SDS011;8605;52.548;4.918;2023-02-15T07:03:52;33.30;;;15.17;;
16977;SDS011;8605;52.548;4.918;2023-02-15T07:08:55;32.57;;;14.87;;
16977;SDS011;8605;52.548;4.918;2023-02-15T07:14:00;30.90;;;15.10;;
16977;SDS011;8605;52.548;4.918;2023-02-15T07:19:18;33.00;;;14.77;;
16977;SDS011;8605;52.548;4.918;2023-02-15T07:24:21;34.43;;;15.80;;
16977;SDS011;8605;52.548;4.918;2023-02-15T07:29:25;33.10;;;16.30;;
16977;SDS011;8605;52.548;4.918;2023-02-15T07:34:28;31.83;;;16.83;;
16977;SDS011;8605;52.548;4.918;2023-02-15T07:39:31;30.77;;;16.83;;
16977;SDS011;8605;52.548;4.918;2023-02-15T07:44:53;32.33;;;16.70;;
16977;SDS011;8605;52.548;4.918;2023-02-15T07:49:56;33.03;;;15.47;;
16977;SDS011;8605;52.548;4.918;2023-02-15T07:54:59;40.23;;;18.00;;
16977;SDS011;8605;52.548;4.918;2023-02-15T08:00:04;36.50;;;18.67;;
16977;SDS011;8605;52.548;4.918;2023-02-15T08:05:12;30.97;;;16.70;;
16977;SDS011;8605;52.548;4.918;2023-02-15T08:10:30;31.03;;;16.90;;
16977;SDS011;8605;52.548;4.918;2023-02-15T08:15:49;35.97;;;19.00;;
16977;SDS011;8605;52.548;4.918;2023-02-15T08:20:52;36.43;;;18.47;;
16977;SDS011;8605;52.548;4.918;2023-02-15T08:25:55;37.83;;;18.57;;
16977;SDS011;8605;52.548;4.918;2023-02-15T08:31:07;34.47;;;16.07;;
16977;SDS011;8605;52.548;4.918;2023-02-15T08:36:12;41.70;;;18.53;;
16977;SDS011;8605;52.548;4.918;2023-02-15T08:41:16;40.27;;;19.70;;
16977;SDS011;8605;52.548;4.918;2023-02-15T08:46:22;38.63;;;19.27;;
16977;SDS011;8605;52.548;4.918;2023-02-15T08:51:25;38.40;;;19.43;;
16977;SDS011;8605;52.548;4.918;2023-02-15T08:56:32;39.40;;;21.67;;
16977;SDS011;8605;52.548;4.918;2023-02-15T09:01:43;49.40;;;23.50;;
16977;SDS011;8605;52.548;4.918;2023-02-15T09:06:47;48.90;;;22.80;;
16977;SDS011;8605;52.548;4.918;2023-02-15T09:11:51;41.37;;;22.37;;
16977;SDS011;8605;52.548;4.918;2023-02-15T09:17:01;45.20;;;21.87;;
16977;SDS011;8605;52.548;4.918;2023-02-15T09:22:04;44.93;;;22.23;;
16977;SDS011;8605;52.548;4.918;2023-02-15T09:27:20;36.87;;;21.97;;
16977;SDS011;8605;52.548;4.918;2023-02-15T09:32:24;45.23;;;22.57;;
16977;SDS011;8605;52.548;4.918;2023-02-15T09:37:27;48.30;;;22.80;;
16977;SDS011;8605;52.548;4.918;2023-02-15T09:42:34;50.57;;;21.90;;
16977;SDS011;8605;52.548;4.918;2023-02-15T09:47:52;48.33;;;22.57;;
16977;SDS011;8605;52.548;4.918;2023-02-15T09:53:24;40.10;;;20.60;;
16977;SDS011;8605;52.548;4.918;2023-02-15T09:58:33;44.53;;;22.97;;
16977;SDS011;8605;52.548;4.918;2023-02-15T10:03:50;37.37;;;21.50;;
16977;SDS011;8605;52.548;4.918;2023-02-15T10:09:06;44.47;;;20.30;;
16977;SDS011;8605;52.548;4.918;2023-02-15T10:14:23;43.50;;;21.07;;
16977;SDS011;8605;52.548;4.918;2023-02-15T10:19:45;33.73;;;18.87;;
16977;SDS011;8605;52.548;4.918;2023-02-15T10:25:01;35.23;;;20.50;;
16977;SDS011;8605;52.548;4.918;2023-02-15T10:30:14;41.40;;;22.10;;
16977;SDS011;8605;52.548;4.918;2023-02-15T10:35:41;47.17;;;21.60;;
16977;SDS011;8605;52.548;4.918;2023-02-15T10:40:51;46.90;;;22.83;;
16977;SDS011;8605;52.548;4.918;2023-02-15T10:46:03;36.47;;;20.20;;
16977;SDS011;8605;52.548;4.918;2023-02-15T10:51:14;39.70;;;20.00;;
16977;SDS011;8605;52.548;4.918;2023-02-15T10:56:19;43.27;;;19.70;;
16977;SDS011;8605;52.548;4.918;2023-02-15T11:01:25;42.33;;;21.27;;
16977;SDS011;8605;52.548;4.918;2023-02-15T11:06:34;41.27;;;19.40;;
16977;SDS011;8605;52.548;4.918;2023-02-15T11:11:41;37.70;;;20.80;;
16977;SDS011;8605;52.548;4.918;2023-02-15T11:16:45;35.90;;;18.53;;
16977;SDS011;8605;52.548;4.918;2023-02-15T11:21:57;32.70;;;19.03;;
16977;SDS011;8605;52.548;4.918;2023-02-15T11:27:03;39.47;;;18.30;;
16977;SDS011;8605;52.548;4.918;2023-02-15T11:32:12;47.63;;;20.20;;
16977;SDS011;8605;52.548;4.918;2023-02-15T11:37:19;41.70;;;20.00;;
16977;SDS011;8605;52.548;4.918;2023-02-15T11:42:26;40.53;;;19.80;;
16977;SDS011;8605;52.548;4.918;2023-02-15T11:47:31;44.33;;;20.87;;
16977;SDS011;8605;52.548;4.918;2023-02-15T11:52:36;35.80;;;20.10;;
16977;SDS011;8605;52.548;4.918;2023-02-15T11:57:40;46.53;;;19.73;;
16977;SDS011;8605;52.548;4.918;2023-02-15T12:02:46;35.43;;;17.97;;
16977;SDS011;8605;52.548;4.918;2023-02-15T12:07:55;35.47;;;18.60;;
16977;SDS011;8605;52.548;4.918;2023-02-15T12:13:09;43.87;;;20.80;;
16977;SDS011;8605;52.548;4.918;2023-02-15T12:18:21;38.43;;;19.03;;
16977;SDS011;8605;52.548;4.918;2023-02-15T12:23:41;40.20;;;19.03;;
16977;SDS011;8605;52.548;4.918;2023-02-15T12:28:48;37.87;;;16.60;;
16977;SDS011;8605;52.548;4.918;2023-02-15T12:33:56;33.27;;;15.67;;
16977;SDS011;8605;52.548;4.918;2023-02-15T12:39:16;46.37;;;18.23;;
16977;SDS011;8605;52.548;4.918;2023-02-15T12:44:23;35.50;;;17.37;;
16977;SDS011;8605;52.548;4.918;2023-02-15T12:49:28;31.27;;;14.67;;
16977;SDS011;8605;52.548;4.918;2023-02-15T12:54:34;36.53;;;17.40;;
16977;SDS011;8605;52.548;4.918;2023-02-15T12:59:44;35.97;;;17.83;;
16977;SDS011;8605;52.548;4.918;2023-02-15T13:04:50;37.63;;;18.67;;
16977;SDS011;8605;52.548;4.918;2023-02-15T13:09:56;36.17;;;17.60;;
16977;SDS011;8605;52.548;4.918;2023-02-15T13:14:59;40.17;;;17.80;;
16977;SDS011;8605;52.548;4.918;2023-02-15T13:20:09;40.33;;;19.20;;
16977;SDS011;8605;52.548;4.918;2023-02-15T13:25:20;42.90;;;18.57;;
16977;SDS011;8605;52.548;4.918;2023-02-15T13:30:26;37.97;;;17.77;;
16977;SDS011;8605;52.548;4.918;2023-02-15T13:35:36;38.10;;;18.57;;
16977;SDS011;8605;52.548;4.918;2023-02-15T13:40:46;30.50;;;17.47;;
16977;SDS011;8605;52.548;4.918;2023-02-15T13:45:55;46.33;;;20.93;;
16977;SDS011;8605;52.548;4.918;2023-02-15T13:51:06;39.83;;;17.80;;
16977;SDS011;8605;52.548;4.918;2023-02-15T13:56:16;40.73;;;18.67;;
16977;SDS011;8605;52.548;4.918;2023-02-15T14:01:24;35.03;;;20.73;;
16977;SDS011;8605;52.548;4.918;2023-02-15T14:06:50;35.43;;;17.47;;
16977;SDS011;8605;52.548;4.918;2023-02-15T14:12:08;39.33;;;19.17;;
16977;SDS011;8605;52.548;4.918;2023-02-15T14:17:34;40.27;;;19.83;;
16977;SDS011;8605;52.548;4.918;2023-02-15T14:22:42;39.50;;;20.03;;
16977;SDS011;8605;52.548;4.918;2023-02-15T14:27:54;40.57;;;19.83;;
16977;SDS011;8605;52.548;4.918;2023-02-15T14:33:01;40.10;;;20.30;;
16977;SDS011;8605;52.548;4.918;2023-02-15T14:38:11;45.93;;;21.07;;
16977;SDS011;8605;52.548;4.918;2023-02-15T14:43:21;45.83;;;21.23;;
16977;SDS011;8605;52.548;4.918;2023-02-15T14:48:30;49.13;;;21.53;;
16977;SDS011;8605;52.548;4.918;2023-02-15T14:53:42;46.57;;;21.67;;
16977;SDS011;8605;52.548;4.918;2023-02-15T14:58:56;41.50;;;19.93;;
16977;SDS011;8605;52.548;4.918;2023-02-15T15:04:02;45.10;;;21.30;;
16977;SDS011;8605;52.548;4.918;2023-02-15T15:09:10;45.90;;;21.03;;
16977;SDS011;8605;52.548;4.918;2023-02-15T15:20:02;37.80;;;22.07;;
16977;SDS011;8605;52.548;4.918;2023-02-15T15:25:42;42.43;;;21.57;;
16977;SDS011;8605;52.548;4.918;2023-02-15T15:30:50;39.30;;;21.10;;
16977;SDS011;8605;52.548;4.918;2023-02-15T15:35:56;44.70;;;20.40;;
16977;SDS011;8605;52.548;4.918;2023-02-15T15:41:17;43.37;;;20.47;;
16977;SDS011;8605;52.548;4.918;2023-02-15T15:46:26;43.80;;;20.93;;
16977;SDS011;8605;52.548;4.918;2023-02-15T15:51:40;42.23;;;20.87;;
16977;SDS011;8605;52.548;4.918;2023-02-15T15:56:44;42.30;;;20.10;;
16977;SDS011;8605;52.548;4.918;2023-02-15T16:01:52;47.27;;;19.97;;
16977;SDS011;8605;52.548;4.918;2023-02-15T16:06:55;38.43;;;19.50;;
16977;SDS011;8605;52.548;4.918;2023-02-15T16:11:59;40.93;;;20.83;;
16977;SDS011;8605;52.548;4.918;2023-02-15T16:17:06;35.53;;;17.83;;
16977;SDS011;8605;52.548;4.918;2023-02-15T16:22:16;36.57;;;19.03;;
16977;SDS011;8605;52.548;4.918;2023-02-15T16:27:34;40.93;;;18.20;;
16977;SDS011;8605;52.548;4.918;2023-02-15T16:39:07;37.30;;;17.93;;
16977;SDS011;8605;52.548;4.918;2023-02-15T16:44:13;37.57;;;18.03;;
16977;SDS011;8605;52.548;4.918;2023-02-15T16:49:19;40.07;;;19.03;;
16977;SDS011;8605;52.548;4.918;2023-02-15T16:54:25;37.63;;;19.63;;
16977;SDS011;8605;52.548;4.918;2023-02-15T16:59:44;32.03;;;17.97;;
16977;SDS011;8605;52.548;4.918;2023-02-15T17:04:59;31.60;;;17.60;;
16977;SDS011;8605;52.548;4.918;2023-02-15T17:10:16;34.30;;;16.90;;
16977;SDS011;8605;52.548;4.918;2023-02-15T17:15:30;35.30;;;17.67;;
16977;SDS011;8605;52.548;4.918;2023-02-15T17:20:41;41.70;;;18.53;;
16977;SDS011;8605;52.548;4.918;2023-02-15T17:25:46;37.43;;;17.37;;
16977;SDS011;8605;52.548;4.918;2023-02-15T17:30:49;34.97;;;18.33;;
16977;SDS011;8605;52.548;4.918;2023-02-15T17:36:04;36.07;;;20.13;;
16977;SDS011;8605;52.548;4.918;2023-02-15T17:41:12;35.97;;;17.50;;
16977;SDS011;8605;52.548;4.918;2023-02-15T17:46:15;34.93;;;18.00;;
16977;SDS011;8605;52.548;4.918;2023-02-15T17:51:20;33.03;;;17.97;;
16977;SDS011;8605;52.548;4.918;2023-02-15T17:56:25;40.37;;;16.93;;
16977;SDS011;8605;52.548;4.918;2023-02-15T18:01:33;42.20;;;19.43;;
16977;SDS011;8605;52.548;4.918;2023-02-15T18:06:55;33.93;;;17.20;;
16977;SDS011;8605;52.548;4.918;2023-02-15T18:12:19;39.73;;;19.23;;
16977;SDS011;8605;52.548;4.918;2023-02-15T18:17:26;31.90;;;16.70;;
16977;SDS011;8605;52.548;4.918;2023-02-15T18:22:30;38.30;;;17.53;;
16977;SDS011;8605;52.548;4.918;2023-02-15T18:27:34;39.67;;;18.50;;
16977;SDS011;8605;52.548;4.918;2023-02-15T18:32:37;35.93;;;16.70;;
16977;SDS011;8605;52.548;4.918;2023-02-15T18:37:41;34.67;;;19.63;;
16977;SDS011;8605;52.548;4.918;2023-02-15T18:42:47;42.53;;;18.67;;
16977;SDS011;8605;52.548;4.918;2023-02-15T18:47:50;40.10;;;19.17;;
16977;SDS011;8605;52.548;4.918;2023-02-15T18:52:53;33.50;;;17.00;;
16977;SDS011;8605;52.548;4.918;2023-02-15T18:57:57;36.20;;;18.67;;
16977;SDS011;8605;52.548;4.918;2023-02-15T19:03:01;42.30;;;21.07;;
16977;SDS011;8605;52.548;4.918;2023-02-15T19:08:05;50.17;;;21.03;;
16977;SDS011;8605;52.548;4.918;2023-02-15T19:13:18;37.60;;;20.07;;
16977;SDS011;8605;52.548;4.918;2023-02-15T19:18:21;41.17;;;19.87;;
16977;SDS011;8605;52.548;4.918;2023-02-15T19:23:24;41.33;;;18.30;;
16977;SDS011;8605;52.548;4.918;2023-02-15T19:28:29;40.43;;;18.00;;
16977;SDS011;8605;52.548;4.918;2023-02-15T19:33:33;37.13;;;18.60;;
16977;SDS011;8605;52.548;4.918;2023-02-15T19:38:37;35.70;;;18.23;;
16977;SDS011;8605;52.548;4.918;2023-02-15T19:43:44;35.87;;;17.63;;
16977;SDS011;8605;52.548;4.918;2023-02-15T19:48:53;35.03;;;16.70;;
16977;SDS011;8605;52.548;4.918;2023-02-15T19:53:56;32.13;;;16.20;;
16977;SDS011;8605;52.548;4.918;2023-02-15T19:59:00;42.53;;;17.53;;
16977;SDS011;8605;52.548;4.918;2023-02-15T20:04:03;34.00;;;17.50;;
16977;SDS011;8605;52.548;4.918;2023-02-15T20:09:06;26.23;;;15.63;;
16977;SDS011;8605;52.548;4.918;2023-02-15T20:14:12;34.23;;;16.40;;
16977;SDS011;8605;52.548;4.918;2023-02-15T20:19:15;31.50;;;16.60;;
16977;SDS011;8605;52.548;4.918;2023-02-15T20:24:19;29.37;;;16.13;;
16977;SDS011;8605;52.548;4.918;2023-02-15T20:29:24;31.53;;;15.60;;
16977;SDS011;8605;52.548;4.918;2023-02-15T20:34:39;30.47;;;15.93;;
16977;SDS011;8605;52.548;4.918;2023-02-15T20:39:42;32.60;;;17.13;;
16977;SDS011;8605;52.548;4.918;2023-02-15T20:44:47;37.53;;;17.37;;
16977;SDS011;8605;52.548;4.918;2023-02-15T20:49:50;32.53;;;16.17;;
16977;SDS011;8605;52.548;4.918;2023-02-15T20:54:54;33.67;;;15.87;;
16977;SDS011;8605;52.548;4.918;2023-02-15T21:00:18;32.57;;;16.83;;
16977;SDS011;8605;52.548;4.918;2023-02-15T21:05:24;36.93;;;16.40;;
16977;SDS011;8605;52.548;4.918;2023-02-15T21:10:29;32.77;;;18.30;;
16977;SDS011;8605;52.548;4.918;2023-02-15T21:15:35;35.20;;;17.63;;
16977;SDS011;8605;52.548;4.918;2023-02-15T21:20:41;33.43;;;16.97;;
16977;SDS011;8605;52.548;4.918;2023-02-15T21:25:54;38.20;;;18.00;;
16977;SDS011;8605;52.548;4.918;2023-02-15T21:30:58;35.93;;;16.10;;
16977;SDS011;8605;52.548;4.918;2023-02-15T21:36:02;34.83;;;16.17;;
16977;SDS011;8605;52.548;4.918;2023-02-15T21:41:05;31.97;;;17.63;;
16977;SDS011;8605;52.548;4.918;2023-02-15T21:46:24;35.07;;;18.60;;
16977;SDS011;8605;52.548;4.918;2023-02-15T21:51:46;35.97;;;17.77;;
16977;SDS011;8605;52.548;4.918;2023-02-15T21:57:11;33.50;;;17.40;;
16977;SDS011;8605;52.548;4.918;2023-02-15T22:02:27;32.23;;;16.67;;
16977;SDS011;8605;52.548;4.918;2023-02-15T22:07:30;32.97;;;18.57;;
16977;SDS011;8605;52.548;4.918;2023-02-15T22:12:33;31.13;;;16.23;;
16977;SDS011;8605;52.548;4.918;2023-02-15T22:17:38;33.47;;;17.80;;
16977;SDS011;8605;52.548;4.918;2023-02-15T22:22:41;37.80;;;17.07;;
16977;SDS011;8605;52.548;4.918;2023-02-15T22:27:44;36.50;;;17.90;;
16977;SDS011;8605;52.548;4.918;2023-02-15T22:32:51;33.80;;;16.97;;
16977;SDS011;8605;52.548;4.918;2023-02-15T22:37:55;33.40;;;16.33;;
16977;SDS011;8605;52.548;4.918;2023-02-15T22:42:59;33.43;;;15.70;;
16977;SDS011;8605;52.548;4.918;2023-02-15T22:48:04;39.03;;;16.77;;
16977;SDS011;8605;52.548;4.918;2023-02-15T22:53:07;31.87;;;16.47;;
16977;SDS011;8605;52.548;4.918;2023-02-15T22:58:12;36.40;;;16.93;;
16977;SDS011;8605;52.548;4.918;2023-02-15T23:03:20;37.20;;;17.33;;
16977;SDS011;8605;52.548;4.918;2023-02-15T23:08:24;32.83;;;16.57;;
16977;SDS011;8605;52.548;4.918;2023-02-15T23:13:29;33.07;;;15.63;;
16977;SDS011;8605;52.548;4.918;2023-02-15T23:18:35;33.73;;;17.73;;
16977;SDS011;8605;52.548;4.918;2023-02-15T23:23:40;33.90;;;17.50;;
16977;SDS011;8605;52.548;4.918;2023-02-15T23:28:44;45.23;;;19.43;;
16977;SDS011;8605;52.548;4.918;2023-02-15T23:33:48;38.93;;;18.33;;
16977;SDS011;8605;52.548;4.918;2023-02-15T23:38:53;35.47;;;17.67;;
16977;SDS011;8605;52.548;4.918;2023-02-15T23:44:09;31.47;;;16.43;;
16977;SDS011;8605;52.548;4.918;2023-02-15T23:49:14;31.07;;;17.67;;
16977;SDS011;8605;52.548;4.918;2023-02-15T23:54:20;33.90;;;17.47;;
16977;SDS011;8605;52.548;4.918;2023-02-15T23:59:26;36.70;;;17.13;;
